sensor_id;sensor_type;location;lat;lon;timestamp;pressure;altitude;pressure_sealevel;temperature;humidity
65832;BME280;52593;42.648;23.332;2023-03-19T00:01:51;95070.34;;;-0.43;79.48
65832;BME280;52593;42.648;23.332;2023-03-19T00:04:17;95062.88;;;-0.49;79.72
65832;BME280;52593;42.648;23.332;2023-03-19T00:06:43;95061.91;;;-0.48;79.77
65832;BME280;52593;42.648;23.332;2023-03-19T00:09:08;95067.84;;;-0.44;79.65
65832;BME280;52593;42.648;23.332;2023-03-19T00:11:34;95068.25;;;-0.50;79.83
65832;BME280;52593;42.648;23.332;2023-03-19T00:14:00;95059.84;;;-0.43;79.78
65832;BME280;52593;42.648;23.332;2023-03-19T00:16:26;95067.47;;;-0.52;79.38
65832;BME280;52593;42.648;23.332;2023-03-19T00:18:51;95062.88;;;-0.49;79.97
65832;BME280;52593;42.648;23.332;2023-03-19T00:21:17;95063.00;;;-0.50;79.71
65832;BME280;52593;42.648;23.332;2023-03-19T00:23:43;95066.56;;;-0.51;80.45
65832;BME280;52593;42.648;23.332;2023-03-19T00:26:09;95051.50;;;-0.62;81.08
65832;BME280;52593;42.648;23.332;2023-03-19T00:28:34;95047.31;;;-0.52;80.62
65832;BME280;52593;42.648;23.332;2023-03-19T00:31:15;95045.41;;;-0.63;80.49
65832;BME280;52593;42.648;23.332;2023-03-19T00:33:41;95038.25;;;-0.61;80.07
65832;BME280;52593;42.648;23.332;2023-03-19T00:36:08;95053.00;;;-0.58;80.04
65832;BME280;52593;42.648;23.332;2023-03-19T00:38:34;95041.63;;;-0.59;80.00
65832;BME280;52593;42.648;23.332;2023-03-19T00:41:04;95037.22;;;-0.58;79.71
65832;BME280;52593;42.648;23.332;2023-03-19T00:43:30;95022.81;;;-0.65;79.69
65832;BME280;52593;42.648;23.332;2023-03-19T00:45:57;95038.16;;;-0.59;79.70
65832;BME280;52593;42.648;23.332;2023-03-19T00:48:22;95039.72;;;-0.69;80.04
65832;BME280;52593;42.648;23.332;2023-03-19T00:50:48;95023.53;;;-0.76;79.66
65832;BME280;52593;42.648;23.332;2023-03-19T00:53:14;95028.25;;;-0.68;80.14
65832;BME280;52593;42.648;23.332;2023-03-19T00:55:40;95026.78;;;-0.73;80.12
65832;BME280;52593;42.648;23.332;2023-03-19T00:58:06;95027.72;;;-0.74;80.22
65832;BME280;52593;42.648;23.332;2023-03-19T01:00:33;95018.69;;;-0.82;80.28
65832;BME280;52593;42.648;23.332;2023-03-19T01:02:59;95003.53;;;-0.92;80.21
65832;BME280;52593;42.648;23.332;2023-03-19T01:05:25;95017.91;;;-0.84;80.52
65832;BME280;52593;42.648;23.332;2023-03-19T01:07:51;95013.22;;;-0.79;80.96
65832;BME280;52593;42.648;23.332;2023-03-19T01:10:19;95006.38;;;-0.95;80.48
65832;BME280;52593;42.648;23.332;2023-03-19T01:12:46;95026.53;;;-0.95;81.52
65832;BME280;52593;42.648;23.332;2023-03-19T01:15:12;95014.16;;;-0.93;81.46
65832;BME280;52593;42.648;23.332;2023-03-19T01:17:38;95018.22;;;-0.89;81.55
65832;BME280;52593;42.648;23.332;2023-03-19T01:20:04;95013.06;;;-0.91;81.43
65832;BME280;52593;42.648;23.332;2023-03-19T01:22:35;95004.88;;;-0.99;81.28
65832;BME280;52593;42.648;23.332;2023-03-19T01:25:03;95009.09;;;-0.96;81.45
65832;BME280;52593;42.648;23.332;2023-03-19T01:27:28;95016.13;;;-0.97;81.11
65832;BME280;52593;42.648;23.332;2023-03-19T01:29:55;95006.78;;;-1.01;81.66
65832;BME280;52593;42.648;23.332;2023-03-19T01:32:20;95003.19;;;-1.00;81.35
65832;BME280;52593;42.648;23.332;2023-03-19T01:34:47;94996.28;;;-1.01;80.85
65832;BME280;52593;42.648;23.332;2023-03-19T01:37:13;95001.41;;;-0.99;81.39
65832;BME280;52593;42.648;23.332;2023-03-19T01:39:39;95012.34;;;-0.93;80.77
65832;BME280;52593;42.648;23.332;2023-03-19T01:42:05;94996.22;;;-1.14;80.93
65832;BME280;52593;42.648;23.332;2023-03-19T01:44:36;95003.28;;;-1.14;81.16
65832;BME280;52593;42.648;23.332;2023-03-19T01:47:09;95013.69;;;-1.00;81.34
65832;BME280;52593;42.648;23.332;2023-03-19T01:49:39;95000.03;;;-1.05;80.96
65832;BME280;52593;42.648;23.332;2023-03-19T01:52:06;95011.78;;;-1.11;81.11
65832;BME280;52593;42.648;23.332;2023-03-19T01:54:32;95017.03;;;-1.11;81.56
65832;BME280;52593;42.648;23.332;2023-03-19T01:57:02;95015.06;;;-1.07;80.19
65832;BME280;52593;42.648;23.332;2023-03-19T01:59:49;95018.94;;;-1.00;80.35
65832;BME280;52593;42.648;23.332;2023-03-19T02:02:32;95013.91;;;-1.03;80.61
65832;BME280;52593;42.648;23.332;2023-03-19T02:05:10;95011.47;;;-1.06;80.16
65832;BME280;52593;42.648;23.332;2023-03-19T02:07:37;95008.00;;;-1.06;79.75
65832;BME280;52593;42.648;23.332;2023-03-19T02:10:07;95008.53;;;-1.14;79.72
65832;BME280;52593;42.648;23.332;2023-03-19T02:12:34;95019.34;;;-1.06;79.25
65832;BME280;52593;42.648;23.332;2023-03-19T02:15:00;95009.31;;;-0.99;78.86
65832;BME280;52593;42.648;23.332;2023-03-19T02:17:27;95019.25;;;-1.04;79.06
65832;BME280;52593;42.648;23.332;2023-03-19T02:20:06;94997.28;;;-1.16;79.40
65832;BME280;52593;42.648;23.332;2023-03-19T02:22:41;95008.41;;;-1.13;80.37
65832;BME280;52593;42.648;23.332;2023-03-19T02:25:15;94997.50;;;-1.19;79.93
65832;BME280;52593;42.648;23.332;2023-03-19T02:27:43;95010.94;;;-1.24;80.37
65832;BME280;52593;42.648;23.332;2023-03-19T02:30:28;95010.06;;;-1.24;81.55
65832;BME280;52593;42.648;23.332;2023-03-19T02:35:39;95018.03;;;-1.26;81.27
65832;BME280;52593;42.648;23.332;2023-03-19T02:38:06;95021.81;;;-1.30;81.58
65832;BME280;52593;42.648;23.332;2023-03-19T02:40:40;95027.09;;;-1.30;81.83
65832;BME280;52593;42.648;23.332;2023-03-19T02:43:08;95026.31;;;-1.32;81.83
65832;BME280;52593;42.648;23.332;2023-03-19T02:45:34;95029.53;;;-1.41;82.54
65832;BME280;52593;42.648;23.332;2023-03-19T02:47:59;95029.97;;;-1.35;82.15
65832;BME280;52593;42.648;23.332;2023-03-19T02:50:25;95021.94;;;-1.32;81.83
65832;BME280;52593;42.648;23.332;2023-03-19T02:52:51;95012.75;;;-1.39;81.90
65832;BME280;52593;42.648;23.332;2023-03-19T02:55:17;95018.25;;;-1.29;81.57
65832;BME280;52593;42.648;23.332;2023-03-19T02:57:44;95014.88;;;-1.31;81.49
65832;BME280;52593;42.648;23.332;2023-03-19T03:00:10;95008.00;;;-1.47;81.33
65832;BME280;52593;42.648;23.332;2023-03-19T03:02:36;95029.34;;;-1.38;82.23
65832;BME280;52593;42.648;23.332;2023-03-19T03:05:03;95019.13;;;-1.43;82.57
65832;BME280;52593;42.648;23.332;2023-03-19T03:07:29;95027.22;;;-1.46;82.19
65832;BME280;52593;42.648;23.332;2023-03-19T03:09:55;95025.22;;;-1.42;82.66
65832;BME280;52593;42.648;23.332;2023-03-19T03:12:20;95034.69;;;-1.40;83.17
65832;BME280;52593;42.648;23.332;2023-03-19T03:14:46;95029.94;;;-1.48;82.60
65832;BME280;52593;42.648;23.332;2023-03-19T03:17:12;95023.84;;;-1.48;82.41
65832;BME280;52593;42.648;23.332;2023-03-19T03:19:38;95028.44;;;-1.52;81.92
65832;BME280;52593;42.648;23.332;2023-03-19T03:22:04;95041.56;;;-1.52;82.37
65832;BME280;52593;42.648;23.332;2023-03-19T03:24:30;95042.97;;;-1.46;83.25
65832;BME280;52593;42.648;23.332;2023-03-19T03:26:55;95039.25;;;-1.29;82.72
65832;BME280;52593;42.648;23.332;2023-03-19T03:29:20;95030.88;;;-1.49;83.02
65832;BME280;52593;42.648;23.332;2023-03-19T03:31:46;95042.31;;;-1.50;82.86
65832;BME280;52593;42.648;23.332;2023-03-19T03:34:12;95021.91;;;-1.59;82.15
65832;BME280;52593;42.648;23.332;2023-03-19T03:36:38;95043.09;;;-1.62;82.49
65832;BME280;52593;42.648;23.332;2023-03-19T03:39:04;95032.72;;;-1.64;83.51
65832;BME280;52593;42.648;23.332;2023-03-19T03:41:29;95051.72;;;-1.60;83.28
65832;BME280;52593;42.648;23.332;2023-03-19T03:43:55;95045.06;;;-1.66;83.84
65832;BME280;52593;42.648;23.332;2023-03-19T03:46:20;95039.47;;;-1.74;84.82
65832;BME280;52593;42.648;23.332;2023-03-19T03:48:46;95031.34;;;-1.84;84.39
65832;BME280;52593;42.648;23.332;2023-03-19T03:51:14;95049.38;;;-1.65;84.61
65832;BME280;52593;42.648;23.332;2023-03-19T03:53:39;95042.19;;;-1.75;84.16
65832;BME280;52593;42.648;23.332;2023-03-19T03:56:05;95061.38;;;-1.60;84.11
65832;BME280;52593;42.648;23.332;2023-03-19T03:58:31;95062.03;;;-1.57;84.45
65832;BME280;52593;42.648;23.332;2023-03-19T04:00:56;95051.91;;;-1.63;84.14
65832;BME280;52593;42.648;23.332;2023-03-19T04:03:22;95050.06;;;-1.75;84.39
65832;BME280;52593;42.648;23.332;2023-03-19T04:05:49;95063.53;;;-1.67;85.50
65832;BME280;52593;42.648;23.332;2023-03-19T04:08:14;95053.63;;;-1.76;85.24
65832;BME280;52593;42.648;23.332;2023-03-19T04:10:41;95051.84;;;-1.76;85.64
65832;BME280;52593;42.648;23.332;2023-03-19T04:13:08;95054.38;;;-1.74;85.54
65832;BME280;52593;42.648;23.332;2023-03-19T04:15:34;95043.31;;;-1.80;85.56
65832;BME280;52593;42.648;23.332;2023-03-19T04:18:00;95040.59;;;-1.78;85.32
65832;BME280;52593;42.648;23.332;2023-03-19T04:20:32;95029.84;;;-1.88;85.84
65832;BME280;52593;42.648;23.332;2023-03-19T04:23:00;95040.78;;;-1.81;85.85
65832;BME280;52593;42.648;23.332;2023-03-19T04:25:27;95040.97;;;-1.84;86.10
65832;BME280;52593;42.648;23.332;2023-03-19T04:27:56;95042.69;;;-1.83;85.67
65832;BME280;52593;42.648;23.332;2023-03-19T04:30:22;95041.00;;;-1.99;86.33
65832;BME280;52593;42.648;23.332;2023-03-19T04:32:47;95051.19;;;-1.80;85.98
65832;BME280;52593;42.648;23.332;2023-03-19T04:35:13;95047.00;;;-1.82;85.92
65832;BME280;52593;42.648;23.332;2023-03-19T04:37:39;95066.09;;;-1.80;85.90
65832;BME280;52593;42.648;23.332;2023-03-19T04:40:08;95065.44;;;-1.84;85.73
65832;BME280;52593;42.648;23.332;2023-03-19T04:42:34;95049.91;;;-1.87;86.07
65832;BME280;52593;42.648;23.332;2023-03-19T04:44:59;95074.69;;;-1.78;85.75
65832;BME280;52593;42.648;23.332;2023-03-19T04:47:25;95075.84;;;-1.82;86.10
65832;BME280;52593;42.648;23.332;2023-03-19T04:49:50;95053.47;;;-1.88;86.64
65832;BME280;52593;42.648;23.332;2023-03-19T04:52:16;95066.28;;;-1.83;87.29
65832;BME280;52593;42.648;23.332;2023-03-19T04:54:42;95058.31;;;-1.82;86.65
65832;BME280;52593;42.648;23.332;2023-03-19T04:57:08;95058.88;;;-1.76;86.68
65832;BME280;52593;42.648;23.332;2023-03-19T04:59:33;95053.69;;;-1.64;86.47
65832;BME280;52593;42.648;23.332;2023-03-19T05:01:59;95048.16;;;-1.59;86.27
65832;BME280;52593;42.648;23.332;2023-03-19T05:04:25;95047.97;;;-1.70;86.11
65832;BME280;52593;42.648;23.332;2023-03-19T05:06:51;95051.47;;;-1.70;86.49
65832;BME280;52593;42.648;23.332;2023-03-19T05:09:18;95068.03;;;-1.69;86.50
65832;BME280;52593;42.648;23.332;2023-03-19T05:11:44;95069.63;;;-1.67;86.98
65832;BME280;52593;42.648;23.332;2023-03-19T05:14:09;95062.41;;;-1.63;86.56
65832;BME280;52593;42.648;23.332;2023-03-19T05:16:35;95063.22;;;-1.48;86.37
65832;BME280;52593;42.648;23.332;2023-03-19T05:19:00;95060.75;;;-1.37;85.35
65832;BME280;52593;42.648;23.332;2023-03-19T05:21:26;95066.91;;;-1.38;85.46
65832;BME280;52593;42.648;23.332;2023-03-19T05:23:52;95072.28;;;-1.39;85.57
65832;BME280;52593;42.648;23.332;2023-03-19T05:26:19;95065.66;;;-1.45;85.86
65832;BME280;52593;42.648;23.332;2023-03-19T05:28:45;95067.59;;;-1.34;86.04
65832;BME280;52593;42.648;23.332;2023-03-19T05:31:11;95041.94;;;-1.44;85.53
65832;BME280;52593;42.648;23.332;2023-03-19T05:33:36;95054.81;;;-1.26;86.04
65832;BME280;52593;42.648;23.332;2023-03-19T05:36:02;95054.75;;;-1.12;85.55
65832;BME280;52593;42.648;23.332;2023-03-19T05:38:27;95066.53;;;-1.04;85.48
65832;BME280;52593;42.648;23.332;2023-03-19T05:40:53;95053.97;;;-0.99;83.79
65832;BME280;52593;42.648;23.332;2023-03-19T05:43:18;95071.13;;;-0.81;81.20
65832;BME280;52593;42.648;23.332;2023-03-19T05:45:49;95061.03;;;-0.74;79.63
65832;BME280;52593;42.648;23.332;2023-03-19T05:48:16;95061.28;;;-0.64;78.50
65832;BME280;52593;42.648;23.332;2023-03-19T05:50:42;95068.75;;;-0.58;77.90
65832;BME280;52593;42.648;23.332;2023-03-19T05:53:07;95070.97;;;-0.52;77.59
65832;BME280;52593;42.648;23.332;2023-03-19T05:55:33;95064.22;;;-0.43;77.12
65832;BME280;52593;42.648;23.332;2023-03-19T05:57:58;95072.97;;;-0.30;76.60
65832;BME280;52593;42.648;23.332;2023-03-19T06:00:24;95071.19;;;-0.29;77.03
65832;BME280;52593;42.648;23.332;2023-03-19T06:02:49;95065.09;;;-0.30;76.84
65832;BME280;52593;42.648;23.332;2023-03-19T06:05:15;95056.59;;;-0.33;77.10
65832;BME280;52593;42.648;23.332;2023-03-19T06:07:41;95059.38;;;-0.11;76.76
65832;BME280;52593;42.648;23.332;2023-03-19T06:10:08;95062.13;;;0.01;76.57
65832;BME280;52593;42.648;23.332;2023-03-19T06:12:33;95068.97;;;0.16;75.58
65832;BME280;52593;42.648;23.332;2023-03-19T06:15:00;95056.84;;;0.26;75.05
65832;BME280;52593;42.648;23.332;2023-03-19T06:17:26;95064.97;;;0.23;75.58
65832;BME280;52593;42.648;23.332;2023-03-19T06:19:52;95062.53;;;0.20;75.20
65832;BME280;52593;42.648;23.332;2023-03-19T06:22:17;95066.50;;;0.26;75.46
65832;BME280;52593;42.648;23.332;2023-03-19T06:24:43;95064.81;;;0.38;75.35
65832;BME280;52593;42.648;23.332;2023-03-19T06:27:09;95068.38;;;0.49;74.92
65832;BME280;52593;42.648;23.332;2023-03-19T06:29:35;95071.63;;;0.53;74.79
65832;BME280;52593;42.648;23.332;2023-03-19T06:32:00;95072.22;;;0.57;74.77
65832;BME280;52593;42.648;23.332;2023-03-19T06:34:27;95082.84;;;0.68;73.86
65832;BME280;52593;42.648;23.332;2023-03-19T06:36:52;95082.63;;;0.71;73.85
65832;BME280;52593;42.648;23.332;2023-03-19T06:39:18;95086.69;;;0.88;73.63
65832;BME280;52593;42.648;23.332;2023-03-19T06:41:44;95073.28;;;0.91;73.42
65832;BME280;52593;42.648;23.332;2023-03-19T06:44:10;95078.38;;;1.05;72.83
65832;BME280;52593;42.648;23.332;2023-03-19T06:46:35;95082.81;;;1.29;71.20
65832;BME280;52593;42.648;23.332;2023-03-19T06:49:01;95074.16;;;1.27;71.00
65832;BME280;52593;42.648;23.332;2023-03-19T06:51:27;95081.63;;;1.33;71.69
65832;BME280;52593;42.648;23.332;2023-03-19T06:53:53;95105.41;;;1.45;71.49
65832;BME280;52593;42.648;23.332;2023-03-19T06:56:19;95102.16;;;1.41;70.39
65832;BME280;52593;42.648;23.332;2023-03-19T06:58:45;95099.75;;;1.38;69.96
65832;BME280;52593;42.648;23.332;2023-03-19T07:01:11;95092.56;;;1.40;69.98
65832;BME280;52593;42.648;23.332;2023-03-19T07:03:36;95090.22;;;1.59;69.64
65832;BME280;52593;42.648;23.332;2023-03-19T07:06:02;95081.00;;;1.65;68.79
65832;BME280;52593;42.648;23.332;2023-03-19T07:08:28;95088.19;;;1.63;69.47
65832;BME280;52593;42.648;23.332;2023-03-19T07:11:04;95088.31;;;1.73;68.75
65832;BME280;52593;42.648;23.332;2023-03-19T07:13:30;95092.66;;;1.74;67.93
65832;BME280;52593;42.648;23.332;2023-03-19T07:15:57;95097.00;;;1.86;67.97
65832;BME280;52593;42.648;23.332;2023-03-19T07:18:23;95087.31;;;1.98;67.51
65832;BME280;52593;42.648;23.332;2023-03-19T07:20:49;95094.88;;;2.14;66.64
65832;BME280;52593;42.648;23.332;2023-03-19T07:23:15;95096.44;;;2.05;66.39
65832;BME280;52593;42.648;23.332;2023-03-19T07:25:40;95090.94;;;2.20;65.92
65832;BME280;52593;42.648;23.332;2023-03-19T07:28:06;95089.00;;;2.22;64.78
65832;BME280;52593;42.648;23.332;2023-03-19T07:30:31;95060.19;;;2.19;64.95
65832;BME280;52593;42.648;23.332;2023-03-19T07:32:57;95075.81;;;2.33;66.11
65832;BME280;52593;42.648;23.332;2023-03-19T07:35:22;95081.09;;;2.44;63.64
65832;BME280;52593;42.648;23.332;2023-03-19T07:37:48;95074.97;;;2.44;63.25
65832;BME280;52593;42.648;23.332;2023-03-19T07:40:14;95073.38;;;2.64;63.34
65832;BME280;52593;42.648;23.332;2023-03-19T07:42:39;95073.03;;;2.68;63.92
65832;BME280;52593;42.648;23.332;2023-03-19T07:45:05;95080.44;;;2.75;63.85
65832;BME280;52593;42.648;23.332;2023-03-19T07:47:31;95072.66;;;2.73;63.43
65832;BME280;52593;42.648;23.332;2023-03-19T07:49:57;95079.34;;;2.89;63.47
65832;BME280;52593;42.648;23.332;2023-03-19T07:52:25;95081.50;;;2.95;62.72
65832;BME280;52593;42.648;23.332;2023-03-19T07:54:52;95090.69;;;3.12;61.78
65832;BME280;52593;42.648;23.332;2023-03-19T07:57:17;95086.25;;;3.12;61.64
65832;BME280;52593;42.648;23.332;2023-03-19T07:59:43;95087.09;;;3.13;59.62
65832;BME280;52593;42.648;23.332;2023-03-19T08:02:13;95083.47;;;3.14;60.42
65832;BME280;52593;42.648;23.332;2023-03-19T08:04:44;95087.88;;;3.25;60.42
65832;BME280;52593;42.648;23.332;2023-03-19T08:07:13;95086.44;;;3.32;58.83
65832;BME280;52593;42.648;23.332;2023-03-19T08:09:39;95088.63;;;3.27;58.66
65832;BME280;52593;42.648;23.332;2023-03-19T08:12:12;95090.53;;;3.25;58.84
65832;BME280;52593;42.648;23.332;2023-03-19T08:14:47;95079.25;;;3.22;59.42
65832;BME280;52593;42.648;23.332;2023-03-19T08:17:16;95084.13;;;3.38;58.87
65832;BME280;52593;42.648;23.332;2023-03-19T08:19:42;95083.06;;;3.62;59.66
65832;BME280;52593;42.648;23.332;2023-03-19T08:22:07;95084.03;;;3.82;57.88
65832;BME280;52593;42.648;23.332;2023-03-19T08:24:33;95096.63;;;3.90;57.21
65832;BME280;52593;42.648;23.332;2023-03-19T08:27:13;95080.22;;;3.96;57.95
65832;BME280;52593;42.648;23.332;2023-03-19T08:29:44;95077.63;;;4.06;56.81
65832;BME280;52593;42.648;23.332;2023-03-19T08:32:09;95069.69;;;4.06;57.07
65832;BME280;52593;42.648;23.332;2023-03-19T08:34:35;95066.25;;;4.15;56.32
65832;BME280;52593;42.648;23.332;2023-03-19T08:37:00;95068.69;;;4.28;56.08
65832;BME280;52593;42.648;23.332;2023-03-19T08:39:26;95069.25;;;4.32;56.13
65832;BME280;52593;42.648;23.332;2023-03-19T08:41:51;95075.16;;;4.45;55.47
65832;BME280;52593;42.648;23.332;2023-03-19T08:44:17;95062.88;;;4.44;55.70
65832;BME280;52593;42.648;23.332;2023-03-19T08:46:42;95066.41;;;4.54;57.58
65832;BME280;52593;42.648;23.332;2023-03-19T08:49:08;95068.03;;;4.76;55.13
65832;BME280;52593;42.648;23.332;2023-03-19T08:51:33;95057.44;;;4.86;54.04
65832;BME280;52593;42.648;23.332;2023-03-19T08:53:58;95064.44;;;4.97;54.26
65832;BME280;52593;42.648;23.332;2023-03-19T08:56:24;95048.72;;;5.15;53.69
65832;BME280;52593;42.648;23.332;2023-03-19T08:58:49;95055.28;;;5.30;53.19
65832;BME280;52593;42.648;23.332;2023-03-19T09:01:15;95051.09;;;5.28;54.13
65832;BME280;52593;42.648;23.332;2023-03-19T09:03:41;95050.13;;;5.48;52.83
65832;BME280;52593;42.648;23.332;2023-03-19T09:06:09;95034.75;;;5.52;52.01
65832;BME280;52593;42.648;23.332;2023-03-19T09:08:35;95047.47;;;5.58;51.79
65832;BME280;52593;42.648;23.332;2023-03-19T09:11:01;95031.50;;;5.78;51.42
65832;BME280;52593;42.648;23.332;2023-03-19T09:13:27;95027.28;;;5.85;50.80
65832;BME280;52593;42.648;23.332;2023-03-19T09:15:53;95018.63;;;5.93;51.25
65832;BME280;52593;42.648;23.332;2023-03-19T09:18:19;95024.47;;;6.16;50.65
65832;BME280;52593;42.648;23.332;2023-03-19T09:20:53;95022.56;;;6.36;49.83
65832;BME280;52593;42.648;23.332;2023-03-19T09:23:19;95030.78;;;6.42;49.98
65832;BME280;52593;42.648;23.332;2023-03-19T09:25:44;95009.38;;;6.44;50.39
65832;BME280;52593;42.648;23.332;2023-03-19T09:28:10;95031.41;;;6.64;50.01
65832;BME280;52593;42.648;23.332;2023-03-19T09:30:36;95024.28;;;6.83;49.82
65832;BME280;52593;42.648;23.332;2023-03-19T09:33:03;95027.69;;;7.03;48.85
65832;BME280;52593;42.648;23.332;2023-03-19T09:35:29;95021.28;;;7.13;48.34
65832;BME280;52593;42.648;23.332;2023-03-19T09:37:59;95010.38;;;7.35;47.92
65832;BME280;52593;42.648;23.332;2023-03-19T09:40:34;95012.81;;;7.46;48.74
65832;BME280;52593;42.648;23.332;2023-03-19T09:45:46;95022.97;;;7.68;45.68
65832;BME280;52593;42.648;23.332;2023-03-19T09:48:23;95006.47;;;7.65;44.39
65832;BME280;52593;42.648;23.332;2023-03-19T09:50:56;95008.78;;;7.86;45.48
65832;BME280;52593;42.648;23.332;2023-03-19T09:56:01;95004.25;;;8.04;45.00
65832;BME280;52593;42.648;23.332;2023-03-19T09:58:34;94999.19;;;8.19;44.27
65832;BME280;52593;42.648;23.332;2023-03-19T10:01:01;94989.53;;;8.27;44.94
65832;BME280;52593;42.648;23.332;2023-03-19T10:03:40;94995.91;;;8.60;44.61
65832;BME280;52593;42.648;23.332;2023-03-19T10:12:02;94993.47;;;9.51;41.73
65832;BME280;52593;42.648;23.332;2023-03-19T10:17:26;94974.09;;;9.65;41.40
65832;BME280;52593;42.648;23.332;2023-03-19T10:20:02;94972.09;;;9.84;41.33
65832;BME280;52593;42.648;23.332;2023-03-19T10:22:51;94971.34;;;10.23;40.83
65832;BME280;52593;42.648;23.332;2023-03-19T10:25:22;94958.78;;;10.40;39.20
65832;BME280;52593;42.648;23.332;2023-03-19T10:27:55;94960.94;;;10.44;38.51
65832;BME280;52593;42.648;23.332;2023-03-19T10:30:22;94951.91;;;10.53;38.72
65832;BME280;52593;42.648;23.332;2023-03-19T10:32:58;94951.06;;;10.53;39.22
65832;BME280;52593;42.648;23.332;2023-03-19T10:35:36;94925.28;;;10.60;37.90
65832;BME280;52593;42.648;23.332;2023-03-19T10:38:42;94940.50;;;10.91;38.02
65832;BME280;52593;42.648;23.332;2023-03-19T10:41:31;94941.41;;;11.06;37.51
65832;BME280;52593;42.648;23.332;2023-03-19T10:44:05;94934.69;;;10.79;38.62
65832;BME280;52593;42.648;23.332;2023-03-19T10:46:37;94932.94;;;10.95;38.84
65832;BME280;52593;42.648;23.332;2023-03-19T10:49:03;94907.81;;;11.27;38.89
65832;BME280;52593;42.648;23.332;2023-03-19T10:51:29;94916.53;;;11.67;37.31
65832;BME280;52593;42.648;23.332;2023-03-19T10:53:59;94924.66;;;11.74;37.00
65832;BME280;52593;42.648;23.332;2023-03-19T10:56:27;94916.66;;;11.89;35.97
65832;BME280;52593;42.648;23.332;2023-03-19T10:58:57;94912.63;;;11.93;35.83
65832;BME280;52593;42.648;23.332;2023-03-19T11:01:37;94908.25;;;11.92;36.27
65832;BME280;52593;42.648;23.332;2023-03-19T11:04:18;94898.22;;;12.09;36.61
65832;BME280;52593;42.648;23.332;2023-03-19T11:06:53;94901.06;;;12.37;35.83
65832;BME280;52593;42.648;23.332;2023-03-19T11:09:34;94906.06;;;12.55;35.11
65832;BME280;52593;42.648;23.332;2023-03-19T11:14:52;94883.66;;;12.63;36.12
65832;BME280;52593;42.648;23.332;2023-03-19T11:17:38;94870.63;;;12.45;36.88
65832;BME280;52593;42.648;23.332;2023-03-19T11:20:30;94863.09;;;12.70;37.65
65832;BME280;52593;42.648;23.332;2023-03-19T11:22:57;94864.78;;;12.93;34.35
65832;BME280;52593;42.648;23.332;2023-03-19T11:25:42;94861.00;;;13.09;33.23
65832;BME280;52593;42.648;23.332;2023-03-19T11:28:13;94863.44;;;13.03;34.78
65832;BME280;52593;42.648;23.332;2023-03-19T11:36:12;94839.94;;;12.91;33.97
65832;BME280;52593;42.648;23.332;2023-03-19T11:39:12;94839.09;;;13.05;33.67
65832;BME280;52593;42.648;23.332;2023-03-19T11:47:31;94819.25;;;13.28;33.22
65832;BME280;52593;42.648;23.332;2023-03-19T11:50:12;94826.66;;;13.26;33.89
65832;BME280;52593;42.648;23.332;2023-03-19T11:52:52;94823.97;;;13.47;34.53
65832;BME280;52593;42.648;23.332;2023-03-19T11:56:07;94812.09;;;13.63;33.28
65832;BME280;52593;42.648;23.332;2023-03-19T12:01:19;94812.28;;;14.32;32.13
65832;BME280;52593;42.648;23.332;2023-03-19T12:12:06;94800.13;;;13.66;32.37
65832;BME280;52593;42.648;23.332;2023-03-19T12:23:11;94780.84;;;14.45;31.33
65832;BME280;52593;42.648;23.332;2023-03-19T12:28:19;94790.41;;;14.48;31.65
65832;BME280;52593;42.648;23.332;2023-03-19T12:36:10;94764.16;;;14.63;31.36
65832;BME280;52593;42.648;23.332;2023-03-19T12:38:44;94764.34;;;14.55;31.11
65832;BME280;52593;42.648;23.332;2023-03-19T12:41:23;94775.19;;;14.69;31.64
65832;BME280;52593;42.648;23.332;2023-03-19T12:44:12;94767.50;;;14.66;31.58
65832;BME280;52593;42.648;23.332;2023-03-19T12:46:42;94761.50;;;14.84;31.13
65832;BME280;52593;42.648;23.332;2023-03-19T12:52:10;94754.69;;;15.81;29.97
65832;BME280;52593;42.648;23.332;2023-03-19T12:54:42;94760.28;;;15.93;29.94
65832;BME280;52593;42.648;23.332;2023-03-19T12:57:18;94757.34;;;15.95;29.82
65832;BME280;52593;42.648;23.332;2023-03-19T13:02:34;94753.28;;;15.45;29.92
65832;BME280;52593;42.648;23.332;2023-03-19T13:10:44;94739.63;;;16.19;29.28
65832;BME280;52593;42.648;23.332;2023-03-19T13:13:34;94735.88;;;16.27;29.25
65832;BME280;52593;42.648;23.332;2023-03-19T13:21:22;94732.75;;;16.30;29.24
65832;BME280;52593;42.648;23.332;2023-03-19T13:23:57;94721.63;;;16.51;29.37
65832;BME280;52593;42.648;23.332;2023-03-19T13:26:25;94721.84;;;17.39;27.92
65832;BME280;52593;42.648;23.332;2023-03-19T13:31:36;94714.41;;;19.13;25.58
65832;BME280;52593;42.648;23.332;2023-03-19T13:34:17;94717.81;;;19.20;25.37
65832;BME280;52593;42.648;23.332;2023-03-19T13:36:50;94712.06;;;19.40;25.13
65832;BME280;52593;42.648;23.332;2023-03-19T13:39:18;94715.56;;;18.75;25.66
65832;BME280;52593;42.648;23.332;2023-03-19T13:44:48;94709.34;;;19.52;26.03
65832;BME280;52593;42.648;23.332;2023-03-19T13:58:25;94707.34;;;19.47;24.99
65832;BME280;52593;42.648;23.332;2023-03-19T14:01:56;94698.09;;;19.01;25.89
65832;BME280;52593;42.648;23.332;2023-03-19T14:04:00;94700.03;;;19.95;24.51
65832;BME280;52593;42.648;23.332;2023-03-19T14:06:42;94691.31;;;20.34;23.51
65832;BME280;52593;42.648;23.332;2023-03-19T14:09:41;94695.25;;;20.95;23.03
65832;BME280;52593;42.648;23.332;2023-03-19T14:14:50;94700.13;;;20.53;23.78
65832;BME280;52593;42.648;23.332;2023-03-19T14:19:45;94691.72;;;20.25;24.79
65832;BME280;52593;42.648;23.332;2023-03-19T14:25:20;94674.81;;;21.44;23.40
65832;BME280;52593;42.648;23.332;2023-03-19T14:27:50;94681.09;;;21.27;23.45
65832;BME280;52593;42.648;23.332;2023-03-19T14:30:39;94677.31;;;22.40;22.01
65832;BME280;52593;42.648;23.332;2023-03-19T14:33:17;94675.00;;;23.36;21.02
65832;BME280;52593;42.648;23.332;2023-03-19T14:35:45;94677.16;;;23.34;21.02
65832;BME280;52593;42.648;23.332;2023-03-19T14:38:23;94669.25;;;23.05;20.79
65832;BME280;52593;42.648;23.332;2023-03-19T14:40:52;94676.72;;;22.38;21.39
65832;BME280;52593;42.648;23.332;2023-03-19T14:52:05;94689.44;;;18.31;26.18